Time;durP1;ratioP1;P1;durP2;ratioP2;P2;SDS_P1;SDS_P2;PMS_P1;PMS_P2;Temp;Humidity;BMP_temperature;BMP_pressure;BME280_temperature;BME280_humidity;BME280_pressure;Samples;Min_cycle;Max_cycle;Signal;HPM_P1;HPM_P2
2023/09/28 00:02:54;;;;;;;10.60;4.40;;;17.80;99.90;;;;;;4925949;28;20043;-81
2023/09/28 00:05:20;;;;;;;8.77;4.65;;;17.80;99.90;;;;;;4962801;28;20508;-81
2023/09/28 00:07:47;;;;;;;8.10;4.38;;;17.80;99.90;;;;;;4914555;29;20051;-81
2023/09/28 00:10:15;;;;;;;9.93;4.55;;;17.80;99.90;;;;;;4931710;29;20094;-81
2023/09/28 00:12:49;;;;;;;9.75;4.53;;;17.70;99.90;;;;;;4921280;29;20123;-81
2023/09/28 00:15:16;;;;;;;9.18;4.85;;;17.70;99.90;;;;;;4947359;29;20050;-81
2023/09/28 00:17:42;;;;;;;8.68;4.43;;;17.70;99.90;;;;;;4929690;29;20083;-81
2023/09/28 00:20:18;;;;;;;9.30;4.60;;;17.70;99.90;;;;;;4915085;29;20075;-81
2023/09/28 00:22:51;;;;;;;9.38;4.40;;;17.70;99.90;;;;;;4927813;29;20624;-81
2023/09/28 00:25:19;;;;;;;8.80;4.43;;;17.70;99.90;;;;;;4929071;29;20039;-81
2023/09/28 00:27:47;;;;;;;8.30;4.20;;;17.70;99.90;;;;;;4914689;29;20046;-81
2023/09/28 00:30:21;;;;;;;9.52;4.30;;;17.70;99.90;;;;;;4911472;29;20414;-81
2023/09/28 00:32:49;;;;;;;9.23;4.85;;;17.70;99.90;;;;;;4954361;28;20047;-81
2023/09/28 00:35:15;;;;;;;8.75;4.30;;;17.70;99.90;;;;;;4930581;29;20055;-81
2023/09/28 00:37:42;;;;;;;8.45;4.20;;;17.70;99.90;;;;;;4945573;29;20055;-81
2023/09/28 00:40:19;;;;;;;8.40;4.40;;;17.80;99.90;;;;;;4960014;28;20458;-81
2023/09/28 00:42:46;;;;;;;8.65;4.63;;;17.80;99.90;;;;;;4978570;28;20046;-81
2023/09/28 00:45:13;;;;;;;9.57;4.72;;;17.80;99.90;;;;;;4913576;29;20417;-81
2023/09/28 00:47:39;;;;;;;9.00;4.55;;;17.80;99.90;;;;;;4915842;29;20032;-81
2023/09/28 00:50:10;;;;;;;8.35;4.28;;;17.80;99.90;;;;;;4950234;29;20044;-81
2023/09/28 00:52:41;;;;;;;8.85;4.65;;;17.80;99.90;;;;;;4933922;29;20050;-81
2023/09/28 00:55:09;;;;;;;10.15;4.20;;;17.80;99.90;;;;;;4961732;28;20044;-81
2023/09/28 00:57:41;;;;;;;8.75;4.10;;;17.80;99.90;;;;;;4965203;28;20066;-81
2023/09/28 01:00:27;;;;;;;8.40;4.43;;;17.80;99.90;;;;;;4948701;28;20047;-81
2023/09/28 01:02:57;;;;;;;9.80;4.45;;;17.80;99.90;;;;;;4965583;28;20051;-81
2023/09/28 01:05:31;;;;;;;8.35;4.38;;;17.80;99.90;;;;;;4929117;29;20572;-81
2023/09/28 01:08:07;;;;;;;8.23;4.18;;;17.70;99.90;;;;;;4931772;29;20035;-81
2023/09/28 01:10:35;;;;;;;8.40;4.32;;;17.70;99.90;;;;;;4965371;28;20039;-81
2023/09/28 01:13:11;;;;;;;10.40;4.72;;;17.70;99.90;;;;;;4965254;28;20079;-81
2023/09/28 01:15:37;;;;;;;8.93;4.60;;;17.70;99.90;;;;;;4917806;29;20130;-81
2023/09/28 01:18:04;;;;;;;8.38;4.18;;;17.70;99.90;;;;;;4976323;28;20039;-81
2023/09/28 01:20:37;;;;;;;8.45;4.25;;;17.70;99.90;;;;;;4948593;28;20140;-81
2023/09/28 01:23:04;;;;;;;9.27;3.95;;;17.60;99.90;;;;;;4932520;29;20050;-81
2023/09/28 01:25:31;;;;;;;8.98;3.70;;;17.70;99.90;;;;;;4934885;29;20048;-81
2023/09/28 01:27:57;;;;;;;8.75;4.10;;;17.70;99.90;;;;;;4979609;28;20593;-81
2023/09/28 01:30:23;;;;;;;8.60;4.15;;;17.60;99.90;;;;;;4934854;29;20079;-81
2023/09/28 01:32:49;;;;;;;8.55;3.97;;;17.60;99.90;;;;;;4931933;29;20048;-81
2023/09/28 01:35:16;;;;;;;8.45;3.60;;;17.60;99.90;;;;;;4916999;29;20051;-81
2023/09/28 01:38:00;;;;;;;8.60;4.20;;;17.60;99.90;;;;;;4946679;29;20120;-81
2023/09/28 01:40:25;;;;;;;8.50;3.70;;;17.60;99.90;;;;;;4939204;29;20127;-81
2023/09/28 01:42:51;;;;;;;11.40;3.88;;;17.60;99.90;;;;;;4932245;29;20127;-81
2023/09/28 01:45:17;;;;;;;8.38;4.10;;;17.60;99.90;;;;;;4964968;28;20547;-81
2023/09/28 01:47:43;;;;;;;9.10;3.67;;;17.60;99.90;;;;;;4949465;29;20054;-81
2023/09/28 01:50:09;;;;;;;8.30;3.53;;;17.50;99.90;;;;;;4916797;29;20130;-81
2023/09/28 01:52:35;;;;;;;8.60;3.85;;;17.60;99.90;;;;;;4932414;29;20075;-81
2023/09/28 01:55:01;;;;;;;8.00;3.60;;;17.60;99.90;;;;;;4932209;29;20078;-81
2023/09/28 01:57:27;;;;;;;8.05;3.88;;;17.60;99.90;;;;;;4948865;28;20079;-81
2023/09/28 01:59:53;;;;;;;8.23;3.83;;;17.60;99.90;;;;;;4932935;29;20043;-81
2023/09/28 02:02:20;;;;;;;8.20;3.55;;;17.60;99.90;;;;;;4948281;29;20050;-81
2023/09/28 02:04:46;;;;;;;8.73;3.60;;;17.60;99.90;;;;;;4979639;28;20114;-81
2023/09/28 02:07:12;;;;;;;9.07;3.53;;;17.60;99.90;;;;;;4981679;28;20040;-81
2023/09/28 02:09:38;;;;;;;9.07;3.90;;;17.60;99.90;;;;;;4948028;29;20043;-81
2023/09/28 02:12:04;;;;;;;9.43;3.47;;;17.60;99.90;;;;;;4933049;29;20052;-81
2023/09/28 02:14:30;;;;;;;7.75;3.60;;;17.60;99.90;;;;;;4945439;28;20490;-81
2023/09/28 02:16:56;;;;;;;7.78;3.70;;;17.60;99.90;;;;;;4932758;29;20036;-81
2023/09/28 02:19:22;;;;;;;7.95;3.58;;;17.60;99.90;;;;;;4949251;29;20055;-81
2023/09/28 02:21:48;;;;;;;8.32;3.83;;;17.60;99.90;;;;;;4962630;28;20035;-81
2023/09/28 02:24:14;;;;;;;8.52;3.97;;;17.60;99.90;;;;;;4945945;28;20051;-81
2023/09/28 02:26:40;;;;;;;8.90;3.80;;;17.60;99.90;;;;;;4933053;29;20394;-81
2023/09/28 02:29:06;;;;;;;8.27;3.60;;;17.60;99.90;;;;;;4948087;28;20102;-81
2023/09/28 02:31:32;;;;;;;9.43;3.50;;;17.60;99.90;;;;;;4947519;29;20039;-81
2023/09/28 02:33:58;;;;;;;8.48;3.97;;;17.60;99.90;;;;;;4963386;28;20039;-81
2023/09/28 02:36:24;;;;;;;9.15;3.85;;;17.60;99.90;;;;;;4948259;29;20429;-81
2023/09/28 02:38:50;;;;;;;9.27;3.60;;;17.60;99.90;;;;;;4947561;29;20059;-81
2023/09/28 02:41:20;;;;;;;8.70;3.70;;;17.60;99.90;;;;;;4980714;28;20040;-81
2023/09/28 02:43:46;;;;;;;8.77;3.75;;;17.60;99.90;;;;;;4960476;28;20152;-81
2023/09/28 02:46:13;;;;;;;8.23;3.78;;;17.60;99.90;;;;;;4916638;29;20102;-81
2023/09/28 02:48:39;;;;;;;6.85;3.17;;;17.60;99.90;;;;;;4947288;29;20054;-81
2023/09/28 02:51:07;;;;;;;9.02;3.90;;;17.60;99.90;;;;;;4964119;28;20122;-81
2023/09/28 02:53:35;;;;;;;8.93;3.83;;;17.60;99.90;;;;;;4929916;29;20055;-81
2023/09/28 02:56:01;;;;;;;7.95;3.45;;;17.60;99.90;;;;;;4928068;29;20044;-81
2023/09/28 02:58:26;;;;;;;9.45;3.30;;;17.60;99.90;;;;;;4961441;28;20494;-81
2023/09/28 03:00:53;;;;;;;7.97;3.40;;;17.60;99.90;;;;;;4914857;29;20128;-81
2023/09/28 03:03:19;;;;;;;8.80;3.58;;;17.60;99.90;;;;;;4926917;29;20517;-81
2023/09/28 03:05:45;;;;;;;8.00;3.53;;;17.50;99.90;;;;;;4947249;29;20106;-81
2023/09/28 03:08:14;;;;;;;8.35;3.88;;;17.50;99.90;;;;;;4930802;29;20409;-81
2023/09/28 03:10:41;;;;;;;7.93;3.60;;;17.50;99.90;;;;;;4931258;29;20043;-81
2023/09/28 03:13:06;;;;;;;8.75;3.70;;;17.50;99.90;;;;;;4927580;29;20032;-81
2023/09/28 03:15:33;;;;;;;8.10;3.50;;;17.50;99.90;;;;;;4930738;29;20047;-81
2023/09/28 03:17:59;;;;;;;7.68;3.33;;;17.50;99.90;;;;;;4948064;29;20131;-81
2023/09/28 03:20:26;;;;;;;9.30;3.40;;;17.50;99.90;;;;;;4916561;29;20106;-81
2023/09/28 03:22:52;;;;;;;8.20;3.50;;;17.50;99.90;;;;;;4922280;29;20044;-81
2023/09/28 03:25:22;;;;;;;8.98;3.53;;;17.50;99.90;;;;;;4977706;28;20070;-81
2023/09/28 03:27:50;;;;;;;8.35;3.63;;;17.50;99.90;;;;;;4944206;28;20158;-81
2023/09/28 03:30:17;;;;;;;9.45;3.50;;;17.40;99.90;;;;;;4930971;29;20071;-81
2023/09/28 03:32:46;;;;;;;7.55;3.40;;;17.40;99.90;;;;;;4912243;29;20504;-81
2023/09/28 03:35:13;;;;;;;8.93;3.47;;;17.40;99.90;;;;;;4978564;28;20047;-81
2023/09/28 03:37:40;;;;;;;8.43;3.67;;;17.40;99.90;;;;;;4931190;29;20063;-81
2023/09/28 03:40:10;;;;;;;9.45;3.97;;;17.40;99.90;;;;;;4915340;29;20047;-81
2023/09/28 03:42:41;;;;;;;8.18;3.38;;;17.30;99.90;;;;;;4960023;28;20055;-81
2023/09/28 03:45:09;;;;;;;8.18;3.58;;;17.30;99.90;;;;;;4913376;29;20039;-81
2023/09/28 03:47:36;;;;;;;8.50;3.75;;;17.30;99.90;;;;;;4916214;29;20047;-81
2023/09/28 03:50:03;;;;;;;8.25;3.75;;;17.30;99.90;;;;;;4929414;29;20067;-81
2023/09/28 03:52:29;;;;;;;8.77;3.92;;;17.20;99.90;;;;;;4941327;28;20475;-80
2023/09/28 03:54:56;;;;;;;9.73;3.92;;;17.20;99.90;;;;;;4963962;28;20051;-81
2023/09/28 03:57:22;;;;;;;9.13;4.15;;;17.20;99.90;;;;;;4960723;28;20051;-81
2023/09/28 03:59:49;;;;;;;8.85;3.67;;;17.20;99.90;;;;;;4959340;28;20039;-81
2023/09/28 04:02:14;;;;;;;9.10;3.90;;;17.10;99.90;;;;;;4946199;29;20043;-81
2023/09/28 04:04:40;;;;;;;9.10;3.92;;;17.10;99.90;;;;;;4930223;29;20122;-81
2023/09/28 04:07:08;;;;;;;8.68;3.95;;;17.10;99.90;;;;;;4962648;28;20032;-81
2023/09/28 04:09:34;;;;;;;9.50;4.10;;;17.10;99.90;;;;;;4961626;28;20111;-81
2023/09/28 04:12:00;;;;;;;7.78;3.55;;;17.10;99.90;;;;;;4947660;28;20043;-81
2023/09/28 04:14:27;;;;;;;9.93;3.90;;;17.00;99.90;;;;;;4929548;29;20075;-81
2023/09/28 04:16:53;;;;;;;9.02;3.83;;;17.00;99.90;;;;;;4971821;28;20027;-81
2023/09/28 04:19:19;;;;;;;9.23;3.88;;;17.00;99.90;;;;;;4946929;29;20039;-81
2023/09/28 04:21:45;;;;;;;9.93;4.10;;;17.00;99.90;;;;;;4946502;28;20036;-81
2023/09/28 04:24:11;;;;;;;8.50;4.07;;;17.00;99.90;;;;;;4963509;28;20043;-81
2023/09/28 04:26:37;;;;;;;9.60;4.00;;;16.90;99.90;;;;;;4929024;29;20127;-81
2023/09/28 04:29:03;;;;;;;8.40;3.80;;;16.90;99.90;;;;;;4943268;28;20119;-81
2023/09/28 04:31:29;;;;;;;10.88;4.20;;;16.90;99.90;;;;;;4929882;29;20040;-81
2023/09/28 04:33:57;;;;;;;10.30;3.97;;;16.80;99.90;;;;;;4956742;28;20040;-81
2023/09/28 04:36:24;;;;;;;8.75;4.35;;;16.80;99.90;;;;;;4974698;28;20063;-81
2023/09/28 04:38:50;;;;;;;9.32;4.25;;;16.80;99.90;;;;;;4960186;28;20569;-81
2023/09/28 04:41:17;;;;;;;9.63;4.25;;;16.80;99.90;;;;;;4926655;29;20040;-81
2023/09/28 04:43:43;;;;;;;8.88;4.15;;;16.80;99.90;;;;;;4946762;29;20047;-81
2023/09/28 04:46:09;;;;;;;12.73;4.35;;;16.80;99.90;;;;;;4945662;29;20046;-81
2023/09/28 04:48:35;;;;;;;9.18;4.25;;;16.80;99.90;;;;;;4961399;28;20032;-81
2023/09/28 04:51:03;;;;;;;9.45;4.18;;;16.70;99.90;;;;;;4943846;28;20052;-81
2023/09/28 04:53:29;;;;;;;10.55;4.78;;;16.70;99.90;;;;;;4942365;29;20505;-81
2023/09/28 04:55:54;;;;;;;10.45;4.35;;;16.70;99.90;;;;;;4927174;29;20044;-81
2023/09/28 04:58:20;;;;;;;9.07;4.30;;;16.70;99.90;;;;;;4944170;29;20107;-81
2023/09/28 05:00:46;;;;;;;10.38;4.40;;;16.70;99.90;;;;;;4939296;28;20036;-81
2023/09/28 05:03:11;;;;;;;9.55;4.57;;;16.70;99.90;;;;;;4931321;29;20043;-82
2023/09/28 05:05:37;;;;;;;9.77;4.57;;;16.70;99.90;;;;;;4913787;29;20063;-82
2023/09/28 05:08:03;;;;;;;9.20;4.45;;;16.60;99.90;;;;;;4928264;29;20142;-81
2023/09/28 05:10:30;;;;;;;9.73;4.55;;;16.60;99.90;;;;;;4927752;29;20486;-81
2023/09/28 05:12:55;;;;;;;10.63;4.93;;;16.60;99.90;;;;;;4945244;28;20043;-82
2023/09/28 05:15:21;;;;;;;11.23;4.63;;;16.60;99.90;;;;;;4913259;29;20047;-81
2023/09/28 05:17:48;;;;;;;10.45;5.30;;;16.50;99.90;;;;;;4915204;29;20126;-81
2023/09/28 05:20:14;;;;;;;10.32;4.85;;;16.60;99.90;;;;;;4913798;29;20079;-81
2023/09/28 05:22:40;;;;;;;9.75;4.75;;;16.50;99.90;;;;;;4969349;28;20055;-80
2023/09/28 05:25:06;;;;;;;8.93;4.18;;;16.50;99.90;;;;;;4925700;29;20054;-81
2023/09/28 05:27:33;;;;;;;12.35;4.40;;;16.50;99.90;;;;;;4946650;28;20048;-81
2023/09/28 05:29:59;;;;;;;9.13;4.05;;;16.50;99.90;;;;;;4930822;29;20533;-81
2023/09/28 05:32:25;;;;;;;9.75;4.40;;;16.50;99.90;;;;;;4930633;29;20171;-81
2023/09/28 05:34:51;;;;;;;10.05;4.32;;;16.50;99.90;;;;;;4947655;28;20524;-81
2023/09/28 05:37:16;;;;;;;9.07;4.07;;;16.40;99.90;;;;;;4934297;29;20176;-81
2023/09/28 05:39:42;;;;;;;9.55;4.32;;;16.40;99.90;;;;;;4966085;28;20075;-81
2023/09/28 05:42:08;;;;;;;9.73;3.88;;;16.50;99.90;;;;;;4962773;28;20094;-81
2023/09/28 05:44:34;;;;;;;9.50;4.47;;;16.40;99.90;;;;;;4964630;28;20271;-81
2023/09/28 05:47:00;;;;;;;8.95;4.20;;;16.40;99.90;;;;;;4950342;29;20051;-81
2023/09/28 05:49:30;;;;;;;9.95;4.50;;;16.40;99.90;;;;;;4934130;29;20038;-81
2023/09/28 05:51:56;;;;;;;8.80;4.40;;;16.40;99.90;;;;;;4917629;29;20050;-81
2023/09/28 05:54:22;;;;;;;9.57;4.57;;;16.40;99.90;;;;;;4932698;29;20039;-81
2023/09/28 05:56:47;;;;;;;10.50;4.68;;;16.40;99.90;;;;;;4917193;29;20130;-81
2023/09/28 05:59:13;;;;;;;10.38;4.20;;;16.40;99.90;;;;;;4966141;28;20035;-81
2023/09/28 06:01:39;;;;;;;9.57;4.68;;;16.40;99.90;;;;;;4963002;28;20098;-81
2023/09/28 06:04:05;;;;;;;9.60;4.22;;;16.40;99.90;;;;;;4948653;29;20052;-81
2023/09/28 06:06:31;;;;;;;9.57;4.70;;;16.40;99.90;;;;;;4979360;28;20052;-81
2023/09/28 06:08:57;;;;;;;8.93;4.20;;;16.40;99.90;;;;;;4932495;29;20090;-81
2023/09/28 06:11:23;;;;;;;9.73;4.40;;;16.40;99.90;;;;;;4948586;28;20040;-81
2023/09/28 06:13:49;;;;;;;9.20;4.28;;;16.30;99.90;;;;;;4950301;28;20042;-81
2023/09/28 06:16:15;;;;;;;9.38;4.60;;;16.40;99.90;;;;;;4932134;29;20052;-81
2023/09/28 06:18:43;;;;;;;9.93;4.43;;;16.30;99.90;;;;;;4945415;29;20044;-81
2023/09/28 06:21:09;;;;;;;10.00;4.57;;;16.40;99.90;;;;;;4933604;29;20047;-81
2023/09/28 06:23:35;;;;;;;10.30;4.70;;;16.40;99.90;;;;;;4963178;28;20568;-81
2023/09/28 06:26:04;;;;;;;9.93;4.50;;;16.40;99.90;;;;;;4938757;29;20054;-81
2023/09/28 06:28:30;;;;;;;9.18;4.18;;;16.40;99.90;;;;;;4980120;28;20569;-81
2023/09/28 06:30:56;;;;;;;10.73;4.70;;;16.40;99.90;;;;;;4951670;28;20080;-81
2023/09/28 06:33:25;;;;;;;9.35;3.88;;;16.50;99.90;;;;;;4945128;28;20074;-81
2023/09/28 06:35:52;;;;;;;9.57;4.20;;;16.50;99.90;;;;;;4932746;29;20071;-81
2023/09/28 06:38:18;;;;;;;11.50;4.70;;;16.50;99.90;;;;;;4930539;29;20047;-81
2023/09/28 06:40:48;;;;;;;10.98;4.00;;;16.50;99.90;;;;;;4933269;29;20058;-81
2023/09/28 06:43:15;;;;;;;9.95;4.35;;;16.50;99.90;;;;;;4929872;29;20548;-81
2023/09/28 06:45:41;;;;;;;10.40;3.90;;;16.50;99.90;;;;;;4948344;29;20662;-81
2023/09/28 06:48:07;;;;;;;10.25;3.70;;;16.50;99.90;;;;;;4964714;28;20044;-82
2023/09/28 06:50:35;;;;;;;11.68;3.92;;;16.60;99.90;;;;;;4932729;29;20090;-81
2023/09/28 06:53:02;;;;;;;10.85;3.63;;;16.60;99.90;;;;;;4946915;28;20043;-81
2023/09/28 06:55:28;;;;;;;9.52;3.40;;;16.70;99.90;;;;;;4917128;29;20083;-81
2023/09/28 06:57:54;;;;;;;11.23;3.67;;;16.60;99.90;;;;;;4931788;29;20039;-81
2023/09/28 07:00:22;;;;;;;11.38;3.22;;;16.70;99.90;;;;;;4949484;28;20054;-81
2023/09/28 07:02:48;;;;;;;11.15;3.63;;;16.70;99.90;;;;;;4964539;28;20521;-81
2023/09/28 07:05:15;;;;;;;10.75;3.42;;;16.80;99.90;;;;;;4928837;29;20051;-81
2023/09/28 07:07:45;;;;;;;11.45;3.67;;;16.80;99.90;;;;;;4964208;28;20083;-81
2023/09/28 07:10:12;;;;;;;17.85;3.65;;;16.80;99.90;;;;;;4964778;28;20122;-81
2023/09/28 07:12:40;;;;;;;12.65;3.05;;;17.00;99.90;;;;;;4930340;29;20040;-81
2023/09/28 07:15:07;;;;;;;11.15;3.45;;;17.00;99.90;;;;;;4917029;29;20532;-81
2023/09/28 07:17:36;;;;;;;13.02;3.20;;;17.10;99.90;;;;;;4930465;29;20043;-82
2023/09/28 07:20:03;;;;;;;10.98;3.33;;;17.20;99.90;;;;;;4947718;29;20098;-81
2023/09/28 07:22:29;;;;;;;11.65;3.35;;;17.20;99.90;;;;;;4929840;29;20118;-81
2023/09/28 07:24:55;;;;;;;11.57;3.08;;;17.30;99.90;;;;;;4916506;29;20047;-82
2023/09/28 07:27:21;;;;;;;10.65;3.35;;;17.30;99.90;;;;;;4948430;29;20459;-81
2023/09/28 07:29:48;;;;;;;11.45;3.20;;;17.40;99.90;;;;;;4947320;29;20039;-81
2023/09/28 07:32:14;;;;;;;12.07;3.10;;;17.40;99.90;;;;;;4930152;29;20107;-81
2023/09/28 07:34:42;;;;;;;10.02;3.10;;;17.50;99.90;;;;;;4948188;29;20035;-81
2023/09/28 07:37:07;;;;;;;11.10;3.35;;;17.50;99.90;;;;;;4930680;29;20059;-81
2023/09/28 07:39:33;;;;;;;10.40;2.90;;;17.50;99.90;;;;;;4945745;28;20036;-81
2023/09/28 07:42:04;;;;;;;11.85;3.17;;;17.60;99.90;;;;;;4932538;29;20091;-82
2023/09/28 07:44:30;;;;;;;12.70;3.22;;;17.70;99.90;;;;;;4915954;29;20118;-81
2023/09/28 07:46:56;;;;;;;12.75;3.55;;;17.70;99.90;;;;;;4930338;29;20130;-81
2023/09/28 07:49:21;;;;;;;9.38;2.65;;;17.80;99.90;;;;;;4928201;29;20587;-82
2023/09/28 07:51:47;;;;;;;12.15;3.67;;;17.90;99.90;;;;;;4941359;28;20059;-81
2023/09/28 07:54:13;;;;;;;15.05;3.67;;;18.00;99.90;;;;;;4947572;29;20520;-81
2023/09/28 07:56:38;;;;;;;12.00;3.10;;;18.10;99.90;;;;;;4931731;29;20043;-81
2023/09/28 07:59:04;;;;;;;11.27;2.95;;;18.10;99.90;;;;;;4932003;29;20079;-81
2023/09/28 08:01:35;;;;;;;10.45;3.15;;;18.20;99.90;;;;;;4945668;29;20533;-81
2023/09/28 08:04:02;;;;;;;13.80;3.50;;;18.20;99.90;;;;;;4931608;29;20349;-81
2023/09/28 08:06:27;;;;;;;12.93;2.95;;;18.30;99.90;;;;;;4930438;29;20048;-81
2023/09/28 08:08:53;;;;;;;13.30;3.22;;;18.30;99.90;;;;;;4947737;29;20114;-81
2023/09/28 08:11:19;;;;;;;11.02;2.92;;;18.40;99.90;;;;;;4946581;29;20044;-81
2023/09/28 08:13:44;;;;;;;10.90;2.70;;;18.50;99.90;;;;;;4927884;29;20044;-81
2023/09/28 08:16:10;;;;;;;10.55;3.13;;;18.50;99.90;;;;;;4963576;28;20122;-81
2023/09/28 08:18:36;;;;;;;11.93;3.00;;;18.60;99.90;;;;;;4947278;29;20054;-81
2023/09/28 08:21:03;;;;;;;13.50;3.42;;;18.50;99.90;;;;;;4930668;29;20079;-82
2023/09/28 08:23:30;;;;;;;13.77;3.15;;;18.50;99.90;;;;;;4957621;28;20044;-82
2023/09/28 08:25:56;;;;;;;14.50;3.05;;;18.50;99.90;;;;;;4947543;29;20413;-81
2023/09/28 08:28:22;;;;;;;11.60;3.03;;;18.60;99.90;;;;;;4944336;28;20039;-82
2023/09/28 08:30:48;;;;;;;9.57;2.30;;;18.80;99.90;;;;;;4974251;28;20044;-81
2023/09/28 08:33:15;;;;;;;12.95;3.38;;;18.90;99.90;;;;;;4979251;28;20040;-81
2023/09/28 08:35:47;;;;;;;11.93;2.75;;;19.00;99.90;;;;;;4979508;28;20058;-81
2023/09/28 08:38:14;;;;;;;14.27;3.40;;;19.10;99.90;;;;;;4963771;28;20043;-81
2023/09/28 08:40:40;;;;;;;13.88;3.33;;;19.10;99.90;;;;;;4928906;29;20082;-82
2023/09/28 08:43:10;;;;;;;17.17;3.97;;;19.20;99.90;;;;;;4963235;28;20130;-82
2023/09/28 08:45:39;;;;;;;12.48;3.47;;;19.30;99.90;;;;;;4931800;29;20044;-82
2023/09/28 08:48:07;;;;;;;11.25;3.00;;;19.30;99.90;;;;;;4931182;29;20040;-81
2023/09/28 08:50:38;;;;;;;13.23;3.20;;;19.40;99.90;;;;;;4930084;29;20110;-82
2023/09/28 08:53:05;;;;;;;14.07;3.30;;;19.40;99.90;;;;;;4947252;29;20047;-82
2023/09/28 08:55:34;;;;;;;14.15;3.47;;;19.40;99.90;;;;;;4931407;29;20127;-81
2023/09/28 08:58:02;;;;;;;16.17;3.53;;;19.40;99.90;;;;;;4962922;28;20075;-82
2023/09/28 09:00:29;;;;;;;12.70;3.35;;;19.40;99.90;;;;;;4929063;29;20047;-81
2023/09/28 09:02:59;;;;;;;13.60;3.40;;;19.40;99.90;;;;;;4963032;28;20066;-82
2023/09/28 09:05:29;;;;;;;15.27;3.67;;;19.50;99.90;;;;;;4929364;29;20039;-82
2023/09/28 09:07:56;;;;;;;17.38;4.05;;;19.60;99.90;;;;;;4932384;29;20043;-82
2023/09/28 09:10:26;;;;;;;14.43;4.07;;;19.60;99.90;;;;;;4940155;29;20126;-81
2023/09/28 09:12:52;;;;;;;12.57;3.40;;;19.60;99.90;;;;;;4962902;28;20179;-81
2023/09/28 09:15:19;;;;;;;14.75;4.07;;;19.60;99.90;;;;;;4966836;28;20123;-82
2023/09/28 09:17:45;;;;;;;12.75;3.67;;;19.60;99.90;;;;;;4915326;29;20051;-82
2023/09/28 09:20:11;;;;;;;14.88;3.92;;;19.50;99.90;;;;;;4918702;29;20051;-82
2023/09/28 09:22:37;;;;;;;15.13;3.60;;;19.40;99.90;;;;;;4933186;29;20079;-82
2023/09/28 09:25:03;;;;;;;14.88;3.83;;;19.60;99.90;;;;;;4934500;29;20043;-82
2023/09/28 09:27:31;;;;;;;13.50;3.85;;;19.50;99.90;;;;;;4934615;29;20093;-81
2023/09/28 09:30:00;;;;;;;12.23;3.95;;;19.50;99.90;;;;;;4943781;28;20118;-82
2023/09/28 09:32:27;;;;;;;15.35;4.15;;;19.40;99.90;;;;;;4949562;29;20397;-82
2023/09/28 09:34:54;;;;;;;12.98;3.40;;;19.30;99.90;;;;;;4934082;29;20043;-82
2023/09/28 09:37:20;;;;;;;15.32;3.83;;;19.30;99.90;;;;;;4932536;29;20087;-82
2023/09/28 09:39:46;;;;;;;16.83;4.25;;;19.20;99.90;;;;;;4946768;28;20040;-82
2023/09/28 09:42:12;;;;;;;14.88;3.90;;;19.20;99.90;;;;;;4931720;29;20036;-83
2023/09/28 09:44:38;;;;;;;12.57;3.50;;;19.20;99.90;;;;;;4980411;28;20032;-82
2023/09/28 09:47:04;;;;;;;13.63;3.47;;;19.10;99.90;;;;;;4934259;29;20040;-82
2023/09/28 09:49:31;;;;;;;12.57;3.75;;;19.10;99.90;;;;;;4934026;29;20042;-82
2023/09/28 09:52:00;;;;;;;13.52;4.10;;;19.10;99.90;;;;;;4934530;29;20486;-82
2023/09/28 09:54:26;;;;;;;15.10;4.10;;;19.10;99.90;;;;;;4931265;29;20043;-81
2023/09/28 09:56:53;;;;;;;14.68;4.30;;;19.10;99.90;;;;;;4961752;28;20043;-81
2023/09/28 09:59:22;;;;;;;12.48;3.95;;;19.10;99.90;;;;;;4962504;28;20047;-82
2023/09/28 10:01:53;;;;;;;14.70;3.90;;;19.10;99.90;;;;;;4932015;29;20047;-82
2023/09/28 10:04:21;;;;;;;14.75;3.67;;;19.10;99.90;;;;;;4947863;29;20107;-82
2023/09/28 10:06:51;;;;;;;16.95;4.38;;;19.20;99.90;;;;;;4934018;29;20524;-82
2023/09/28 10:09:21;;;;;;;14.82;4.13;;;19.10;99.90;;;;;;4949115;28;20082;-81
2023/09/28 10:11:49;;;;;;;14.30;3.35;;;19.10;99.90;;;;;;4949430;28;20118;-82
2023/09/28 10:14:17;;;;;;;15.07;3.90;;;19.00;99.90;;;;;;4932424;29;20123;-82
2023/09/28 10:16:44;;;;;;;12.57;3.50;;;19.00;99.90;;;;;;4933207;29;20047;-82
2023/09/28 10:19:15;;;;;;;14.75;3.55;;;19.00;99.90;;;;;;4946990;28;20036;-82
2023/09/28 10:21:41;;;;;;;14.82;3.78;;;19.00;99.90;;;;;;4949316;28;20038;-82
2023/09/28 10:24:11;;;;;;;15.77;3.80;;;19.00;99.90;;;;;;4980376;28;20118;-82
2023/09/28 10:26:38;;;;;;;11.70;3.15;;;19.00;99.90;;;;;;4939106;29;20039;-82
2023/09/28 10:29:06;;;;;;;14.55;3.40;;;19.00;99.90;;;;;;4929916;29;20099;-82
2023/09/28 10:31:42;;;;;;;12.60;3.45;;;19.10;99.90;;;;;;4932834;29;20391;-81
2023/09/28 10:34:15;;;;;;;11.02;2.90;;;19.20;99.90;;;;;;4917183;29;20039;-82
2023/09/28 10:36:41;;;;;;;13.10;2.80;;;19.10;99.90;;;;;;4932257;29;20061;-82
2023/09/28 10:39:15;;;;;;;13.95;3.17;;;19.20;99.90;;;;;;4936755;29;20122;-82
2023/09/28 10:41:49;;;;;;;17.40;3.47;;;19.10;99.90;;;;;;4948163;28;20039;-82
2023/09/28 10:44:20;;;;;;;11.93;3.17;;;19.20;99.90;;;;;;4963885;28;20043;-82
2023/09/28 10:46:47;;;;;;;11.82;3.05;;;19.10;99.90;;;;;;4932123;29;20052;-81
2023/09/28 10:49:23;;;;;;;11.95;2.80;;;19.10;99.90;;;;;;4931287;29;20032;-82
2023/09/28 10:51:49;;;;;;;14.80;3.10;;;19.10;99.90;;;;;;4980547;28;20405;-81
2023/09/28 10:54:15;;;;;;;12.13;3.05;;;19.10;99.90;;;;;;4948732;29;20517;-82
2023/09/28 10:56:41;;;;;;;12.25;2.80;;;19.10;99.90;;;;;;4948053;29;20062;-82
2023/09/28 10:59:07;;;;;;;12.02;3.45;;;19.10;99.90;;;;;;4932754;29;20422;-82
2023/09/28 11:01:39;;;;;;;11.95;3.30;;;19.10;99.90;;;;;;4929179;29;20063;-82
2023/09/28 11:04:04;;;;;;;13.50;2.97;;;19.10;99.90;;;;;;4932673;29;20497;-82
2023/09/28 11:06:32;;;;;;;11.18;3.00;;;19.10;99.90;;;;;;4931717;29;20075;-82
2023/09/28 11:09:01;;;;;;;12.63;2.95;;;19.10;99.90;;;;;;4948385;29;20118;-82
2023/09/28 11:11:27;;;;;;;16.10;3.28;;;19.10;99.90;;;;;;4931600;29;20078;-82
2023/09/28 11:13:58;;;;;;;13.48;3.08;;;19.10;99.90;;;;;;4948884;29;20504;-82
2023/09/28 11:16:25;;;;;;;11.25;3.25;;;19.10;99.90;;;;;;4931045;29;20445;-82
2023/09/28 11:18:52;;;;;;;15.50;3.45;;;19.10;99.90;;;;;;4946767;29;20055;-82
2023/09/28 11:21:18;;;;;;;11.73;3.15;;;19.10;99.90;;;;;;4946994;29;20055;-82
2023/09/28 11:23:45;;;;;;;9.57;2.75;;;19.10;99.90;;;;;;4948270;28;20059;-82
2023/09/28 11:26:11;;;;;;;12.60;3.00;;;19.10;99.90;;;;;;4948179;29;20054;-82
2023/09/28 11:28:38;;;;;;;11.98;2.83;;;19.10;99.90;;;;;;4931322;29;20051;-82
2023/09/28 11:31:11;;;;;;;11.13;2.92;;;19.10;99.90;;;;;;4931529;29;20063;-82
2023/09/28 11:33:38;;;;;;;11.63;3.08;;;19.10;99.90;;;;;;4916340;29;20040;-81
2023/09/28 11:36:11;;;;;;;13.73;3.30;;;19.10;99.90;;;;;;4932498;29;20131;-82
2023/09/28 11:38:39;;;;;;;;;;;19.00;99.90;;;;;;4931952;29;20503;-82
2023/09/28 11:41:08;;;;;;;11.95;3.05;;;19.00;99.90;;;;;;4948186;29;19974;-82
2023/09/28 11:43:47;;;;;;;12.48;3.30;;;18.90;99.90;;;;;;4931610;29;20098;-82
2023/09/28 11:46:19;;;;;;;13.75;3.65;;;18.90;99.90;;;;;;4947846;29;20040;-82
2023/09/28 11:48:45;;;;;;;14.43;3.42;;;19.00;99.90;;;;;;4946875;29;20043;-82
2023/09/28 11:51:14;;;;;;;11.73;2.72;;;19.00;99.90;;;;;;4947999;29;20039;-82
2023/09/28 11:53:41;;;;;;;9.55;2.60;;;19.00;99.90;;;;;;4930215;29;20040;-82
2023/09/28 11:56:09;;;;;;;11.88;3.30;;;19.10;99.90;;;;;;4931936;29;20521;-82
2023/09/28 11:58:35;;;;;;;12.98;2.60;;;19.10;99.90;;;;;;4932226;29;20044;-82
2023/09/28 12:01:02;;;;;;;12.07;3.30;;;19.10;99.90;;;;;;4946665;29;20047;-82
2023/09/28 12:03:28;;;;;;;11.63;2.92;;;19.20;99.90;;;;;;4915742;29;20179;-82
2023/09/28 12:05:55;;;;;;;13.77;3.53;;;19.10;99.90;;;;;;4931848;29;20058;-82
2023/09/28 12:08:21;;;;;;;12.75;3.10;;;19.20;99.90;;;;;;4931797;29;20473;-82
2023/09/28 12:10:47;;;;;;;12.90;3.05;;;19.20;99.90;;;;;;4945817;29;20067;-82
2023/09/28 12:13:13;;;;;;;16.55;3.72;;;19.30;99.90;;;;;;4977975;28;20119;-81
2023/09/28 12:15:39;;;;;;;12.00;3.30;;;19.40;99.90;;;;;;4947625;29;20179;-82
2023/09/28 12:18:04;;;;;;;10.98;3.10;;;19.50;99.90;;;;;;4947610;29;20285;-82
2023/09/28 12:20:31;;;;;;;11.23;2.88;;;19.50;99.90;;;;;;4930602;29;20047;-82
2023/09/28 12:22:56;;;;;;;11.27;2.72;;;19.50;99.90;;;;;;4913125;29;20105;-82
2023/09/28 12:25:23;;;;;;;12.80;3.22;;;19.50;99.90;;;;;;4947342;29;20651;-82
2023/09/28 12:27:50;;;;;;;13.02;3.17;;;19.50;99.90;;;;;;4947664;28;20063;-82
2023/09/28 12:30:21;;;;;;;14.43;3.05;;;19.50;99.90;;;;;;4947419;29;20134;-81
2023/09/28 12:32:48;;;;;;;12.57;3.33;;;19.50;99.90;;;;;;4930408;29;20040;-82
2023/09/28 12:35:14;;;;;;;10.90;2.58;;;19.40;99.90;;;;;;4931243;29;20653;-82
2023/09/28 12:37:39;;;;;;;12.27;3.30;;;19.40;99.90;;;;;;4947489;29;20209;-82
2023/09/28 12:40:11;;;;;;;10.75;2.85;;;19.30;99.90;;;;;;4931482;29;20039;-82
2023/09/28 12:42:38;;;;;;;14.07;3.53;;;19.20;99.90;;;;;;4916674;29;20110;-82